createdAt,value
2018-09-25T00:01:38.632Z,51.38
2018-09-25T00:04:12.482Z,51.37
2018-09-25T00:06:46.216Z,50.95
2018-09-25T00:09:19.690Z,50.74
2018-09-25T00:11:53.148Z,50.53
2018-09-25T00:14:26.708Z,51.03
2018-09-25T00:17:00.200Z,50.66
2018-09-25T00:19:33.800Z,51.04
2018-09-25T00:22:07.317Z,50.55
2018-09-25T00:24:40.821Z,50.81
2018-09-25T00:27:14.512Z,50.56
2018-09-25T00:29:48.274Z,50.57
2018-09-25T00:32:21.945Z,50.76
2018-09-25T00:34:55.682Z,50.54
2018-09-25T00:37:29.393Z,50.73
2018-09-25T00:40:03.017Z,50.90
2018-09-25T00:42:36.416Z,50.60
2018-09-25T00:45:10.051Z,50.54
2018-09-25T00:47:43.548Z,51.03
2018-09-25T00:50:17.164Z,50.34
2018-09-25T00:52:50.928Z,50.61
2018-09-25T00:55:24.716Z,50.89
2018-09-25T01:00:48.682Z,50.65
2018-09-25T01:03:22.323Z,51.16
2018-09-25T01:05:55.903Z,50.55
2018-09-25T01:08:29.595Z,50.41
2018-09-25T01:11:03.074Z,50.75
2018-09-25T01:13:36.723Z,50.53
2018-09-25T01:16:10.212Z,50.56
2018-09-25T01:18:43.809Z,50.65
2018-09-25T01:21:17.196Z,50.84
2018-09-25T01:23:50.885Z,50.72
2018-09-25T01:29:15.617Z,50.90
2018-09-25T01:31:49.228Z,51.02
2018-09-25T01:34:22.837Z,50.87
2018-09-25T01:36:56.539Z,50.39
2018-09-25T01:39:29.989Z,50.19
2018-09-25T01:42:03.557Z,50.40
2018-09-25T01:44:37.273Z,50.45
2018-09-25T01:47:10.967Z,50.74
2018-09-25T01:49:44.739Z,50.83
2018-09-25T01:52:18.286Z,50.86
2018-09-25T01:54:51.922Z,50.24
2018-09-25T01:57:25.521Z,50.20
2018-09-25T01:59:59.235Z,50.14
2018-09-25T02:02:32.773Z,50.81
2018-09-25T02:05:06.190Z,50.50
2018-09-25T02:07:39.695Z,50.36
2018-09-25T02:10:13.239Z,50.73
2018-09-25T02:12:46.875Z,50.42
2018-09-25T02:15:20.572Z,50.30
2018-09-25T02:17:53.988Z,50.74
2018-09-25T02:20:27.687Z,50.80
2018-09-25T02:23:01.156Z,50.28
2018-09-25T02:25:34.791Z,50.66
2018-09-25T02:28:08.613Z,50.60
2018-09-25T02:30:42.173Z,50.28
2018-09-25T02:33:15.648Z,50.81
2018-09-25T02:35:49.339Z,50.74
2018-09-25T02:38:22.912Z,50.73
2018-09-25T02:40:56.580Z,50.15
2018-09-25T02:43:30.181Z,50.56
2018-09-25T02:46:03.884Z,50.26
2018-09-25T02:48:37.624Z,50.76
2018-09-25T02:51:11.391Z,50.46
2018-09-25T02:53:45.115Z,50.71
2018-09-25T02:56:18.855Z,50.14
2018-09-25T02:58:52.682Z,50.22
2018-09-25T03:01:26.168Z,50.67
2018-09-25T03:03:59.959Z,50.64
2018-09-25T03:06:33.770Z,50.36
2018-09-25T03:09:07.310Z,50.37
2018-09-25T03:11:40.827Z,50.36
2018-09-25T03:14:14.859Z,50.06
2018-09-25T03:16:48.444Z,50.10
2018-09-25T03:19:22.027Z,50.58
2018-09-25T03:21:55.652Z,50.70
2018-09-25T03:24:29.267Z,50.24
2018-09-25T03:27:02.851Z,50.24
2018-09-25T03:29:36.487Z,50.45
2018-09-25T03:32:10.247Z,50.10
2018-09-25T03:34:43.728Z,50.15
2018-09-25T03:37:17.288Z,50.56
2018-09-25T03:39:50.861Z,50.91
2018-09-25T03:42:24.568Z,51.01
2018-09-25T03:44:58.034Z,51.59
2018-09-25T03:47:31.652Z,51.22
2018-09-25T03:50:05.263Z,50.98
2018-09-25T03:52:38.897Z,50.54
2018-09-25T03:55:12.663Z,50.60
2018-09-25T03:57:46.327Z,50.83
2018-09-25T04:00:19.891Z,50.96
2018-09-25T04:02:53.363Z,50.35
2018-09-25T04:05:26.771Z,50.38
2018-09-25T04:08:07.219Z,50.86
2018-09-25T04:10:41.063Z,50.48
2018-09-25T04:13:14.771Z,50.36
2018-09-25T04:15:48.235Z,50.58
2018-09-25T04:18:21.862Z,50.45
2018-09-25T04:20:55.540Z,50.51
2018-09-25T04:23:29.209Z,50.70
2018-09-25T04:26:02.666Z,50.93
2018-09-25T04:28:37.014Z,50.60
2018-09-25T04:31:10.676Z,50.76
2018-09-25T04:33:44.424Z,50.87
2018-09-25T04:36:17.985Z,50.59
2018-09-25T04:38:51.549Z,50.23
2018-09-25T04:41:25.240Z,50.08
2018-09-25T04:43:59.105Z,50.75
2018-09-25T04:46:32.768Z,50.83
2018-09-25T04:49:06.426Z,50.83
2018-09-25T04:51:40.142Z,50.84
2018-09-25T04:54:13.749Z,50.34
2018-09-25T04:56:47.350Z,50.38
2018-09-25T04:59:20.965Z,50.20
2018-09-25T05:01:54.505Z,50.13
2018-09-25T05:04:28.088Z,50.49
2018-09-25T05:07:01.627Z,50.58
2018-09-25T05:09:35.161Z,50.09
2018-09-25T05:12:08.851Z,50.58
2018-09-25T05:14:42.599Z,50.23
2018-09-25T05:17:16.270Z,50.53
2018-09-25T05:19:49.927Z,50.53
2018-09-25T05:22:23.659Z,50.27
2018-09-25T05:24:57.324Z,50.64
2018-09-25T05:27:30.971Z,50.66
2018-09-25T05:30:04.551Z,50.27
2018-09-25T05:32:38.437Z,50.81
2018-09-25T05:35:12.097Z,50.49
2018-09-25T05:37:45.643Z,50.78
2018-09-25T05:40:19.237Z,50.41
2018-09-25T05:42:52.827Z,50.90
2018-09-25T05:45:26.526Z,50.80
2018-09-25T05:48:00.323Z,51.23
2018-09-25T05:50:34.371Z,51.10
2018-09-25T05:53:08.129Z,51.24
2018-09-25T05:55:42.014Z,51.12
2018-09-25T05:58:15.513Z,51.03
2018-09-25T06:00:49.136Z,51.29
2018-09-25T06:03:22.733Z,51.27
2018-09-25T06:05:56.256Z,50.79
2018-09-25T06:08:30.195Z,50.90
2018-09-25T06:11:03.659Z,51.02
2018-09-25T06:13:37.251Z,51.17
2018-09-25T06:16:10.890Z,50.68
2018-09-25T06:18:44.639Z,50.65
2018-09-25T06:21:18.103Z,50.21
2018-09-25T06:23:51.667Z,49.89
2018-09-25T06:26:25.279Z,49.91
2018-09-25T06:28:58.893Z,50.10
2018-09-25T06:31:32.691Z,50.51
2018-09-25T06:34:06.453Z,50.40
2018-09-25T06:36:40.154Z,50.85
2018-09-25T06:39:14.337Z,51.03
2018-09-25T06:41:48.042Z,50.41
2018-09-25T06:44:21.503Z,50.23
2018-09-25T06:46:55.203Z,50.69
2018-09-25T06:49:28.942Z,50.13
2018-09-25T06:52:02.662Z,49.82
2018-09-25T06:54:36.474Z,49.39
2018-09-25T06:57:10.113Z,49.80
2018-09-25T06:59:43.636Z,49.39
2018-09-25T07:02:17.276Z,49.79
2018-09-25T07:04:50.858Z,49.24
2018-09-25T07:07:24.535Z,49.42
2018-09-25T07:09:58.161Z,49.45
2018-09-25T07:12:31.669Z,49.65
2018-09-25T07:15:05.155Z,49.82
2018-09-25T07:17:38.838Z,49.78
2018-09-25T07:20:12.306Z,49.71
2018-09-25T07:22:45.935Z,49.62
2018-09-25T07:25:19.499Z,49.59
2018-09-25T07:27:53.196Z,49.55
2018-09-25T07:30:26.631Z,49.53
2018-09-25T07:33:00.307Z,49.24
2018-09-25T07:35:33.758Z,49.23
2018-09-25T07:38:07.306Z,49.33
2018-09-25T07:40:41.005Z,49.73
2018-09-25T07:43:14.619Z,49.72
2018-09-25T07:45:48.216Z,49.75
2018-09-25T07:48:21.905Z,49.25
2018-09-25T07:50:55.350Z,49.05
2018-09-25T07:53:28.793Z,49.16
2018-09-25T07:56:02.391Z,49.28
2018-09-25T07:58:36.015Z,49.78
2018-09-25T08:01:09.551Z,49.35
2018-09-25T08:03:43.379Z,49.80
2018-09-25T08:06:16.899Z,49.93
2018-09-25T08:08:50.517Z,49.89
2018-09-25T08:11:24.147Z,49.42
2018-09-25T08:13:57.555Z,49.43
2018-09-25T08:16:31.003Z,49.92
2018-09-25T08:19:04.623Z,49.77
2018-09-25T08:21:38.125Z,49.79
2018-09-25T08:24:12.031Z,50.04
2018-09-25T08:26:45.639Z,50.22
2018-09-25T08:29:19.579Z,50.02
2018-09-25T08:31:53.376Z,50.43
2018-09-25T08:34:27.002Z,50.82
2018-09-25T08:37:00.706Z,50.82
2018-09-25T08:39:34.372Z,50.56
2018-09-25T08:42:07.754Z,50.16
2018-09-25T08:44:41.497Z,50.25
2018-09-25T08:47:15.247Z,50.75
2018-09-25T08:49:48.990Z,50.80
2018-09-25T08:52:22.455Z,50.46
2018-09-25T08:54:56.067Z,51.00
2018-09-25T08:57:29.695Z,51.04
2018-09-25T09:00:03.409Z,50.51
2018-09-25T09:02:37.032Z,50.19
2018-09-25T09:05:10.893Z,50.46
2018-09-25T09:07:44.633Z,50.74
2018-09-25T09:10:18.328Z,50.66
2018-09-25T09:12:51.980Z,50.83
2018-09-25T09:15:25.460Z,50.89
2018-09-25T09:17:59.169Z,50.96
2018-09-25T09:20:32.858Z,50.54
2018-09-25T09:23:06.311Z,51.11
2018-09-25T09:25:40.033Z,50.77
2018-09-25T09:28:13.493Z,50.83
2018-09-25T09:30:47.203Z,50.88
2018-09-25T09:33:20.637Z,51.14
2018-09-25T09:35:54.239Z,50.90
2018-09-25T09:38:27.843Z,50.33
2018-09-25T09:41:01.505Z,50.31
2018-09-25T09:43:34.967Z,50.99
2018-09-25T09:46:08.535Z,50.67
2018-09-25T09:48:42.203Z,50.60
2018-09-25T09:51:15.757Z,50.40
2018-09-25T09:53:49.322Z,50.41
2018-09-25T09:56:22.901Z,50.56
2018-09-25T09:58:56.331Z,50.94
2018-09-25T10:01:29.891Z,51.03
2018-09-25T10:04:03.298Z,51.22
2018-09-25T10:06:36.775Z,50.83
2018-09-25T10:09:13.550Z,51.15
2018-09-25T10:11:47.601Z,51.14
2018-09-25T10:14:21.888Z,50.93
2018-09-25T10:16:55.283Z,50.95
2018-09-25T10:19:28.767Z,50.90
2018-09-25T10:22:02.431Z,50.73
2018-09-25T10:24:36.083Z,50.77
2018-09-25T10:27:09.648Z,51.20
2018-09-25T10:29:43.276Z,51.25
2018-09-25T10:32:16.907Z,51.03
2018-09-25T10:34:50.594Z,51.20
2018-09-25T10:37:24.313Z,50.77
2018-09-25T10:39:58.115Z,50.63
2018-09-25T10:42:31.975Z,51.13
2018-09-25T10:45:05.691Z,50.88
2018-09-25T10:47:39.297Z,51.05
2018-09-25T10:50:13.085Z,51.11
2018-09-25T10:52:46.487Z,51.22
2018-09-25T10:55:20.123Z,51.52
2018-09-25T10:57:53.657Z,51.62
2018-09-25T11:00:27.308Z,51.56
2018-09-25T11:03:00.836Z,51.43
2018-09-25T11:05:34.354Z,51.28
2018-09-25T11:08:07.931Z,51.52
2018-09-25T11:10:41.348Z,51.50
2018-09-25T11:13:14.913Z,51.62
2018-09-25T11:15:48.494Z,51.60
2018-09-25T11:18:22.130Z,51.36
2018-09-25T11:20:55.627Z,51.19
2018-09-25T11:23:29.150Z,51.22
2018-09-25T11:26:02.704Z,51.63
2018-09-25T11:28:36.375Z,51.53
2018-09-25T11:31:10.097Z,51.27
2018-09-25T11:33:43.865Z,51.72
2018-09-25T11:36:17.630Z,51.31
2018-09-25T11:38:51.147Z,51.40
2018-09-25T11:41:24.795Z,51.81
2018-09-25T11:43:58.461Z,51.81
2018-09-25T11:46:32.055Z,51.49
2018-09-25T11:49:05.672Z,50.88
2018-09-25T11:51:39.296Z,51.03
2018-09-25T11:54:13.046Z,50.15
2018-09-25T11:56:46.714Z,49.89
2018-09-25T11:59:20.437Z,50.25
2018-09-25T12:01:53.939Z,50.15
2018-09-25T12:04:27.643Z,50.90
2018-09-25T12:07:01.124Z,50.55
2018-09-25T12:09:34.867Z,50.70
2018-09-25T12:12:08.376Z,50.72
2018-09-25T12:14:42.021Z,50.79
2018-09-25T12:17:16.566Z,51.21
2018-09-25T12:19:50.044Z,50.92
2018-09-25T12:22:23.585Z,51.49
2018-09-25T12:24:57.091Z,51.00
2018-09-25T12:27:30.651Z,50.97
2018-09-25T12:30:04.175Z,50.94
2018-09-25T12:32:37.761Z,51.39
2018-09-25T12:35:11.353Z,51.07
2018-09-25T12:37:44.829Z,51.38
2018-09-25T12:40:18.328Z,51.47
2018-09-25T12:42:52.059Z,51.18
2018-09-25T12:45:25.649Z,51.63
2018-09-25T12:47:59.255Z,51.05
2018-09-25T12:50:32.763Z,51.54
2018-09-25T12:53:06.335Z,51.20
2018-09-25T12:55:39.942Z,51.67
2018-09-25T13:21:13.101Z,23.22
2018-09-25T13:23:49.216Z,21.40
2018-09-25T13:26:23.948Z,20.16
2018-09-25T13:28:59.390Z,18.04
2018-09-25T13:31:34.088Z,18.32
2018-09-25T13:34:12.127Z,19.16
2018-09-25T13:36:49.715Z,18.49
2018-09-25T13:39:24.393Z,18.26
2018-09-25T13:41:58.979Z,19.12
2018-09-25T13:49:50.319Z,18.51
2018-09-25T13:52:27.536Z,19.78
2018-09-25T13:55:03.670Z,20.25
2018-09-25T13:57:39.454Z,18.77
2018-09-25T14:00:16.818Z,18.06
2018-09-25T14:02:53.586Z,18.62
2018-09-25T14:05:31.080Z,18.53
2018-09-25T14:08:07.141Z,17.00
2018-09-25T14:10:44.005Z,17.08
2018-09-25T14:13:19.562Z,15.97
2018-09-25T14:15:56.179Z,16.54
2018-09-25T14:18:31.640Z,18.15
2018-09-25T14:21:09.381Z,15.89
2018-09-25T14:23:47.193Z,17.32
2018-09-25T14:26:21.240Z,16.74
2018-09-25T14:28:57.351Z,19.29
2018-09-25T14:32:04.440Z,18.18
2018-09-25T14:34:41.089Z,17.22
2018-09-25T14:37:16.497Z,17.65
2018-09-25T14:39:50.573Z,16.55
2018-09-25T14:42:25.374Z,17.01
2018-09-25T14:45:00.006Z,16.35
2018-09-25T14:47:35.559Z,16.76
2018-09-25T14:50:10.456Z,16.93
2018-09-25T14:52:46.839Z,17.07
2018-09-25T14:55:21.696Z,17.92
2018-09-25T14:57:58.151Z,17.29
2018-09-25T15:00:35.740Z,16.66
2018-09-25T15:03:10.574Z,16.57
2018-09-25T15:05:48.228Z,17.93
2018-09-25T15:08:29.986Z,17.29
2018-09-25T15:11:09.817Z,17.83
2018-09-25T15:13:44.010Z,17.93
2018-09-25T15:16:18.778Z,17.00
2018-09-25T15:18:54.333Z,18.40
2018-09-25T15:21:31.597Z,17.56
2018-09-25T15:24:09.724Z,17.85
2018-09-25T15:26:49.523Z,17.82
2018-09-25T15:29:27.122Z,19.96
2018-09-25T15:32:00.869Z,19.77
2018-09-25T15:34:36.561Z,19.42
2018-09-25T15:37:12.679Z,21.08
2018-09-25T15:39:49.360Z,20.53
2018-09-25T15:42:25.209Z,20.17
2018-09-25T15:45:04.643Z,20.14
2018-09-25T15:47:41.010Z,19.12
2018-09-25T15:50:17.151Z,19.48
2018-09-25T15:52:55.398Z,19.63
2018-09-25T15:55:36.338Z,19.87
2018-09-25T15:58:17.432Z,19.08
2018-09-25T16:00:56.138Z,20.19
2018-09-25T16:03:31.433Z,22.16
2018-09-25T16:08:47.325Z,19.01
2018-09-25T16:11:22.645Z,19.18
2018-09-25T16:13:57.922Z,19.73
2018-09-25T16:16:33.834Z,19.82
2018-09-25T16:19:11.542Z,20.84
2018-09-25T16:21:45.450Z,21.55
2018-09-25T16:24:24.291Z,22.22
2018-09-25T16:27:01.447Z,22.03
2018-09-25T16:29:38.696Z,21.90
2018-09-25T16:32:14.702Z,21.89
2018-09-25T16:34:50.455Z,23.29
2018-09-25T16:37:26.297Z,23.61
2018-09-25T16:40:04.926Z,26.23
2018-09-25T16:42:42.433Z,25.88
2018-09-25T16:45:18.981Z,26.92
2018-09-25T16:47:57.916Z,28.66
2018-09-25T16:50:35.107Z,29.33
2018-09-25T16:53:12.185Z,30.60
2018-09-25T16:55:50.658Z,30.92
2018-09-25T16:58:30.247Z,32.14
2018-09-25T17:01:06.017Z,33.78
2018-09-25T17:03:42.048Z,34.67
2018-09-25T17:06:17.499Z,33.64
2018-09-25T17:08:53.455Z,35.00
2018-09-25T17:11:30.540Z,36.06
2018-09-25T17:14:07.417Z,36.80
2018-09-25T17:16:42.161Z,37.07
2018-09-25T17:19:16.770Z,37.14
2018-09-25T17:21:53.956Z,37.51
2018-09-25T17:24:30.450Z,38.54
2018-09-25T17:27:06.074Z,39.67
2018-09-25T17:29:41.102Z,38.38
2018-09-25T17:32:19.216Z,39.47
2018-09-25T17:35:01.831Z,40.27
2018-09-25T17:37:41.884Z,39.58
2018-09-25T17:40:16.206Z,40.23
2018-09-25T17:42:51.842Z,40.70
2018-09-25T17:45:24.758Z,41.02
2018-09-25T17:47:57.686Z,41.24
2018-09-25T17:50:30.746Z,41.15
2018-09-25T17:53:03.714Z,41.83
2018-09-25T17:55:36.702Z,40.82
2018-09-25T17:58:09.795Z,42.28
2018-09-25T18:00:42.767Z,42.46
2018-09-25T18:03:16.350Z,42.86
2018-09-25T18:05:49.370Z,42.99
2018-09-25T18:08:22.350Z,43.31
2018-09-25T18:11:26.525Z,44.21
2018-09-25T18:13:59.702Z,43.24
2018-09-25T18:16:32.750Z,65.77
2018-09-25T18:19:05.780Z,59.74
2018-09-25T18:21:38.861Z,56.26
2018-09-25T18:24:11.964Z,62.28
2018-09-25T18:26:44.911Z,57.71
2018-09-25T18:29:17.977Z,54.58
2018-09-25T18:31:50.973Z,58.51
2018-09-25T18:34:23.858Z,50.35
2018-09-25T18:36:56.959Z,52.09
2018-09-25T18:39:30.039Z,50.64
2018-09-25T18:42:03.028Z,59.18
2018-09-25T18:44:35.999Z,50.30
2018-09-25T18:47:08.976Z,41.37
2018-09-25T18:49:42.032Z,58.49
2018-09-25T18:52:15.084Z,55.47
2018-09-25T18:54:48.186Z,52.25
2018-09-25T18:57:21.152Z,49.93
2018-09-25T18:59:54.245Z,57.64
2018-09-25T19:02:27.208Z,49.11
2018-09-25T19:05:00.164Z,50.20
2018-09-25T19:07:33.242Z,54.92
2018-09-25T19:10:06.411Z,51.57
2018-09-25T19:12:39.311Z,50.22
2018-09-25T19:15:12.335Z,45.79
2018-09-25T19:17:45.526Z,48.58
2018-09-25T19:20:18.457Z,55.48
2018-09-25T19:22:51.437Z,48.66
2018-09-25T19:25:24.448Z,51.64
2018-09-25T19:27:57.590Z,43.61
2018-09-25T19:30:30.665Z,43.58
2018-09-25T19:33:03.605Z,45.09
2018-09-25T19:35:36.644Z,50.98
2018-09-25T19:38:09.487Z,51.96
2018-09-25T19:40:42.526Z,43.54
2018-09-25T19:43:15.538Z,52.27
2018-09-25T19:45:48.612Z,58.21
2018-09-25T19:48:21.741Z,42.84
2018-09-25T19:50:54.819Z,49.01
2018-09-25T19:53:27.788Z,50.54
2018-09-25T19:56:00.862Z,51.18
2018-09-25T19:58:33.792Z,48.13
2018-09-25T20:01:06.997Z,55.17
2018-09-25T20:03:39.939Z,47.83
2018-09-25T20:06:13.249Z,45.46
2018-09-25T20:08:47.033Z,50.38
2018-09-25T20:11:20.032Z,45.00
2018-09-25T20:13:53.144Z,47.13
2018-09-25T20:16:26.206Z,43.11
2018-09-25T20:18:59.168Z,56.23
2018-09-25T20:21:32.182Z,46.20
2018-09-25T20:24:05.468Z,43.90
2018-09-25T20:26:38.363Z,53.18
2018-09-25T20:29:11.701Z,48.59
2018-09-25T20:31:44.749Z,45.97
2018-09-25T20:34:17.840Z,45.18
2018-09-25T20:36:50.688Z,48.66
2018-09-25T20:39:23.606Z,57.51
2018-09-25T20:41:56.570Z,45.15
2018-09-25T20:44:29.554Z,45.87
2018-09-25T20:47:02.528Z,46.25
2018-09-25T20:49:35.466Z,49.32
2018-09-25T20:52:08.544Z,58.65
2018-09-25T20:54:41.513Z,52.58
2018-09-25T20:57:14.545Z,50.42
2018-09-25T20:59:47.458Z,52.05
2018-09-25T21:02:20.599Z,51.90
2018-09-25T21:04:53.462Z,51.42
2018-09-25T21:07:26.477Z,51.66
2018-09-25T21:09:59.396Z,55.83
2018-09-25T21:12:32.682Z,52.42
2018-09-25T21:15:05.798Z,54.73
2018-09-25T21:17:38.722Z,62.43
2018-09-25T21:20:11.776Z,50.18
2018-09-25T21:22:44.876Z,53.16
2018-09-25T21:25:17.850Z,54.93
2018-09-25T21:27:50.685Z,55.03
2018-09-25T21:30:23.641Z,52.68
2018-09-25T21:32:56.576Z,54.37
2018-09-25T21:35:29.683Z,56.95
2018-09-25T21:38:02.743Z,55.09
2018-09-25T21:40:36.199Z,53.16
2018-09-25T21:43:09.696Z,56.73
2018-09-25T21:45:42.763Z,64.11
2018-09-25T21:48:15.728Z,55.20
2018-09-25T21:50:48.796Z,57.01
2018-09-25T21:53:21.778Z,55.02
2018-09-25T21:55:54.817Z,56.38
2018-09-25T21:58:27.721Z,57.06
2018-09-25T22:01:00.695Z,64.90
2018-09-25T22:03:33.632Z,58.98
2018-09-25T22:06:07.281Z,59.54
2018-09-25T22:08:40.458Z,54.45
2018-09-25T22:11:13.361Z,58.69
2018-09-25T22:13:46.484Z,63.37
2018-09-25T22:16:19.374Z,52.78
2018-09-25T22:18:52.403Z,51.75
2018-09-25T22:21:25.310Z,58.44
2018-09-25T22:23:58.840Z,52.87
2018-09-25T22:26:31.760Z,58.80
2018-09-25T22:29:04.789Z,52.10
2018-09-25T22:31:37.656Z,59.32
2018-09-25T22:34:10.610Z,52.81
2018-09-25T22:36:44.225Z,55.42
2018-09-25T22:39:17.088Z,55.54
2018-09-25T22:41:50.031Z,54.94
2018-09-25T22:44:23.054Z,58.34
2018-09-25T22:46:56.147Z,58.87
2018-09-25T22:49:29.103Z,54.62
2018-09-25T22:52:02.073Z,56.32
2018-09-25T22:54:35.566Z,56.34
2018-09-25T22:57:08.463Z,64.59
2018-09-25T22:59:41.454Z,60.09
2018-09-25T23:02:14.800Z,56.99
2018-09-25T23:04:47.731Z,57.65
2018-09-25T23:07:20.719Z,57.40
2018-09-25T23:09:53.615Z,58.71
2018-09-25T23:12:26.598Z,58.50
2018-09-25T23:14:59.604Z,60.55
2018-09-25T23:17:32.651Z,60.88
2018-09-25T23:20:05.652Z,60.12
2018-09-25T23:22:38.649Z,61.42
2018-09-25T23:25:11.579Z,61.85
2018-09-25T23:27:44.716Z,60.12
2018-09-25T23:30:17.702Z,62.80
2018-09-25T23:32:50.804Z,58.84
2018-09-25T23:35:23.753Z,59.04
2018-09-25T23:37:56.691Z,67.35
2018-09-25T23:40:47.573Z,67.72
2018-09-25T23:43:24.523Z,61.42
2018-09-25T23:46:02.442Z,63.42
2018-09-25T23:48:37.288Z,52.89
2018-09-25T23:51:10.295Z,58.30
2018-09-25T23:53:44.022Z,52.19
2018-09-25T23:56:17.769Z,54.59
2018-09-25T23:58:49.926Z,55.17
